createdAt,value
2022-07-27T00:01:09.068Z,19.58
2022-07-27T00:03:36.177Z,19.56
2022-07-27T00:06:03.241Z,19.55
2022-07-27T00:08:30.123Z,19.60
2022-07-27T00:10:57.480Z,19.64
2022-07-27T00:13:24.450Z,19.71
2022-07-27T00:15:51.716Z,19.75
2022-07-27T00:18:18.527Z,19.65
2022-07-27T00:20:45.328Z,19.70
2022-07-27T00:23:12.216Z,19.68
2022-07-27T00:25:39.272Z,19.68
2022-07-27T00:28:06.348Z,19.60
2022-07-27T00:30:33.339Z,19.51
2022-07-27T00:33:00.597Z,19.46
2022-07-27T00:35:27.576Z,19.45
2022-07-27T00:37:54.371Z,19.37
2022-07-27T00:40:21.452Z,19.38
2022-07-27T00:42:48.198Z,19.40
2022-07-27T00:45:15.055Z,19.41
2022-07-27T00:47:41.856Z,19.35
2022-07-27T00:50:09.663Z,19.22
2022-07-27T00:52:38.488Z,19.13
2022-07-27T00:55:06.116Z,19.07
2022-07-27T00:57:33.353Z,18.98
2022-07-27T01:00:21.374Z,18.96
2022-07-27T01:02:51.431Z,18.94
2022-07-27T01:05:18.437Z,18.90
2022-07-27T01:07:45.386Z,18.83
2022-07-27T01:10:12.677Z,18.78
2022-07-27T01:12:39.417Z,18.71
2022-07-27T01:15:06.726Z,18.65
2022-07-27T01:17:33.783Z,18.51
2022-07-27T01:20:00.679Z,18.63
2022-07-27T01:22:27.584Z,18.57
2022-07-27T01:24:54.603Z,18.48
2022-07-27T01:27:21.571Z,18.43
2022-07-27T01:29:48.843Z,18.38
2022-07-27T01:32:15.858Z,18.38
2022-07-27T01:34:42.809Z,18.32
2022-07-27T01:37:09.566Z,18.41
2022-07-27T01:39:36.459Z,18.37
2022-07-27T01:42:03.814Z,18.37
2022-07-27T01:44:30.749Z,18.47
2022-07-27T01:46:57.496Z,18.56
2022-07-27T01:49:24.433Z,18.57
2022-07-27T01:51:51.914Z,18.54
2022-07-27T01:54:18.705Z,18.59
2022-07-27T01:56:45.489Z,18.53
2022-07-27T01:59:16.114Z,18.48
2022-07-27T02:01:44.697Z,18.58
2022-07-27T02:04:11.982Z,18.57
2022-07-27T02:06:39.559Z,18.51
2022-07-27T02:09:06.625Z,18.54
2022-07-27T02:11:52.482Z,18.41
2022-07-27T02:14:21.146Z,18.44
2022-07-27T02:16:48.400Z,18.37
2022-07-27T02:19:19.031Z,18.29
2022-07-27T02:21:46.070Z,18.18
2022-07-27T02:24:12.924Z,18.09
2022-07-27T02:26:39.927Z,17.94
2022-07-27T02:29:07.027Z,17.88
2022-07-27T02:31:34.176Z,17.76
2022-07-27T02:34:01.125Z,17.83
2022-07-27T02:36:30.613Z,17.81
2022-07-27T02:38:58.317Z,17.78
2022-07-27T02:41:25.567Z,17.75
2022-07-27T02:43:52.326Z,17.66
2022-07-27T02:46:19.203Z,17.61
2022-07-27T02:48:46.204Z,17.59
2022-07-27T02:51:15.025Z,17.52
2022-07-27T02:53:42.223Z,17.52
2022-07-27T02:56:09.235Z,17.53
2022-07-27T02:58:36.286Z,17.62
2022-07-27T03:01:05.199Z,17.61
2022-07-27T03:03:32.940Z,17.62
2022-07-27T03:06:05.387Z,17.61
2022-07-27T03:08:32.448Z,17.61
2022-07-27T03:10:59.418Z,17.59
2022-07-27T03:13:26.707Z,17.60
2022-07-27T03:15:53.641Z,17.54
2022-07-27T03:18:20.814Z,17.54
2022-07-27T03:20:47.585Z,17.57
2022-07-27T03:23:14.431Z,17.56
2022-07-27T03:25:41.302Z,17.59
2022-07-27T03:28:08.195Z,17.47
2022-07-27T03:30:35.015Z,17.53
2022-07-27T03:33:02.028Z,17.55
2022-07-27T03:35:29.011Z,17.54
2022-07-27T03:37:56.407Z,17.53
2022-07-27T03:40:23.210Z,17.51
2022-07-27T03:42:50.029Z,17.63
2022-07-27T03:45:16.797Z,17.66
2022-07-27T03:47:43.694Z,17.68
2022-07-27T03:50:10.810Z,17.85
2022-07-27T03:52:37.566Z,17.88
2022-07-27T03:55:06.324Z,17.89
2022-07-27T03:57:33.294Z,17.95
2022-07-27T04:00:00.083Z,17.99
2022-07-27T04:02:26.973Z,18.03
2022-07-27T04:04:53.805Z,18.12
2022-07-27T04:07:21.040Z,18.18
2022-07-27T04:09:47.799Z,18.24
2022-07-27T04:12:15.204Z,18.37
2022-07-27T04:14:44.537Z,18.48
2022-07-27T04:17:11.373Z,18.56
2022-07-27T04:19:38.155Z,18.71
2022-07-27T04:22:05.134Z,18.80
2022-07-27T04:24:32.010Z,18.95
2022-07-27T04:26:58.845Z,19.08
2022-07-27T04:29:26.030Z,19.24
2022-07-27T04:31:53.150Z,19.41
2022-07-27T04:34:20.199Z,19.56
2022-07-27T04:36:47.125Z,19.76
2022-07-27T04:39:14.225Z,19.92
2022-07-27T04:41:41.271Z,20.12
2022-07-27T04:44:08.562Z,20.31
2022-07-27T04:46:35.449Z,20.50
2022-07-27T04:49:02.407Z,20.67
2022-07-27T04:51:34.170Z,20.84
2022-07-27T04:54:02.030Z,20.93
2022-07-27T04:56:28.939Z,20.98
2022-07-27T04:58:56.317Z,21.07
2022-07-27T05:01:23.669Z,21.08
2022-07-27T05:03:50.755Z,20.99
2022-07-27T05:06:17.736Z,21.09
2022-07-27T05:08:44.795Z,21.22
2022-07-27T05:11:11.663Z,21.34
2022-07-27T05:13:40.595Z,21.61
2022-07-27T05:16:09.517Z,21.75
2022-07-27T05:18:37.909Z,21.93
2022-07-27T05:21:05.433Z,21.98
2022-07-27T05:23:32.540Z,21.99
2022-07-27T05:25:59.637Z,22.03
2022-07-27T05:28:26.709Z,22.16
2022-07-27T05:30:53.700Z,22.26
2022-07-27T05:33:20.456Z,22.30
2022-07-27T05:35:47.234Z,22.39
2022-07-27T05:38:14.368Z,22.20
2022-07-27T05:40:43.460Z,22.30
2022-07-27T05:43:10.358Z,22.29
2022-07-27T05:45:38.237Z,22.17
2022-07-27T05:48:05.563Z,22.38
2022-07-27T05:50:32.602Z,22.16
2022-07-27T05:53:01.088Z,22.39
2022-07-27T05:55:28.022Z,22.45
2022-07-27T05:57:55.817Z,22.39
2022-07-27T06:00:22.642Z,22.59
2022-07-27T06:02:49.443Z,22.67
2022-07-27T06:05:17.352Z,22.85
2022-07-27T06:08:00.262Z,23.06
2022-07-27T06:10:29.523Z,23.03
2022-07-27T06:12:58.895Z,23.21
2022-07-27T06:15:26.409Z,23.32
2022-07-27T06:17:54.256Z,23.47
2022-07-27T06:20:22.436Z,23.64
2022-07-27T06:22:54.306Z,23.79
2022-07-27T06:25:22.049Z,23.98
2022-07-27T06:27:49.300Z,24.13
2022-07-27T06:30:18.150Z,24.19
2022-07-27T06:32:45.004Z,24.24
2022-07-27T06:35:14.314Z,24.19
2022-07-27T06:37:44.275Z,24.27
2022-07-27T06:40:13.452Z,24.54
2022-07-27T06:42:41.238Z,24.75
2022-07-27T06:45:09.048Z,24.66
2022-07-27T06:47:36.827Z,24.80
2022-07-27T06:50:20.728Z,24.92
2022-07-27T06:52:48.540Z,25.03
2022-07-27T06:55:15.554Z,25.11
2022-07-27T06:57:43.134Z,25.21
2022-07-27T07:00:11.553Z,25.32
2022-07-27T07:02:39.825Z,25.28
2022-07-27T07:05:09.316Z,25.37
2022-07-27T07:07:37.295Z,25.37
2022-07-27T07:10:04.315Z,25.33
2022-07-27T07:12:32.480Z,25.19
2022-07-27T07:14:59.386Z,25.23
2022-07-27T07:17:27.252Z,25.36
2022-07-27T07:19:54.012Z,25.60
2022-07-27T07:22:20.859Z,25.55
2022-07-27T07:24:47.650Z,25.75
2022-07-27T07:27:14.427Z,25.76
2022-07-27T07:29:41.303Z,26.09
2022-07-27T07:32:08.134Z,26.12
2022-07-27T07:34:34.868Z,26.15
2022-07-27T07:37:01.648Z,26.44
2022-07-27T07:39:31.348Z,26.65
2022-07-27T07:41:59.011Z,26.77
2022-07-27T07:44:26.360Z,26.81
2022-07-27T07:46:53.267Z,26.87
2022-07-27T07:49:38.110Z,27.12
2022-07-27T07:52:07.948Z,27.26
2022-07-27T07:54:35.169Z,27.35
2022-07-27T07:57:02.138Z,27.27
2022-07-27T07:59:28.953Z,27.20
2022-07-27T08:01:55.877Z,27.42
2022-07-27T08:04:22.783Z,27.65
2022-07-27T08:06:49.757Z,27.69
2022-07-27T08:09:21.753Z,27.81
2022-07-27T08:11:48.570Z,27.78
2022-07-27T08:14:15.711Z,27.71
2022-07-27T08:16:42.776Z,27.87
2022-07-27T08:19:09.983Z,28.01
2022-07-27T08:21:36.930Z,28.10
2022-07-27T08:24:03.940Z,28.49
2022-07-27T08:26:30.738Z,28.75
2022-07-27T08:29:13.177Z,29.03
2022-07-27T08:31:51.232Z,29.03
2022-07-27T08:34:19.304Z,29.12
2022-07-27T08:36:46.101Z,29.21
2022-07-27T08:39:41.291Z,29.55
2022-07-27T08:42:06.478Z,29.93
2022-07-27T08:44:33.753Z,29.27
2022-07-27T08:47:04.022Z,29.49
2022-07-27T08:49:42.462Z,29.78
2022-07-27T08:52:11.217Z,30.00
2022-07-27T08:54:42.032Z,30.29
2022-07-27T08:57:09.878Z,30.36
2022-07-27T08:59:37.454Z,30.61
2022-07-27T09:02:09.992Z,30.69
2022-07-27T09:04:42.297Z,30.74
2022-07-27T09:07:09.218Z,30.90
2022-07-27T09:09:47.045Z,30.93
2022-07-27T09:12:14.022Z,31.10
2022-07-27T09:14:42.225Z,31.27
2022-07-27T09:17:48.087Z,31.39
2022-07-27T09:20:18.650Z,31.39
2022-07-27T09:22:56.531Z,31.02
2022-07-27T09:25:45.300Z,30.99
2022-07-27T09:28:11.557Z,31.27
2022-07-27T09:30:43.159Z,31.39
2022-07-27T09:33:10.928Z,31.74
2022-07-27T09:35:38.093Z,32.26
2022-07-27T09:38:25.211Z,32.67
2022-07-27T09:41:03.772Z,32.74
2022-07-27T09:46:30.349Z,32.65
2022-07-27T09:48:57.590Z,32.91
2022-07-27T09:54:13.460Z,32.72
2022-07-27T09:56:40.729Z,32.85
2022-07-27T09:59:07.579Z,33.18
2022-07-27T10:01:42.231Z,33.52
2022-07-27T10:04:14.157Z,33.61
2022-07-27T10:07:01.056Z,33.93
2022-07-27T10:09:31.149Z,34.19
2022-07-27T10:11:58.556Z,34.11
2022-07-27T10:14:25.837Z,34.00
2022-07-27T10:16:55.161Z,34.35
2022-07-27T10:19:50.805Z,34.59
2022-07-27T10:22:49.565Z,34.71
2022-07-27T10:25:16.514Z,34.83
2022-07-27T10:27:47.366Z,34.72
2022-07-27T10:30:17.697Z,34.92
2022-07-27T10:32:51.906Z,35.21
2022-07-27T10:35:37.356Z,35.67
2022-07-27T10:38:13.076Z,35.85
2022-07-27T10:40:40.007Z,35.96
2022-07-27T10:43:20.035Z,35.64
2022-07-27T10:46:00.070Z,35.70
2022-07-27T10:48:42.739Z,35.66
2022-07-27T10:51:16.573Z,35.82
2022-07-27T10:54:11.099Z,35.70
2022-07-27T10:56:52.374Z,36.17
2022-07-27T10:59:58.205Z,36.58
2022-07-27T11:02:40.947Z,36.34
2022-07-27T11:05:24.675Z,35.98
2022-07-27T11:08:29.552Z,36.83
2022-07-27T11:10:44.418Z,36.80
2022-07-27T11:13:12.988Z,35.92
2022-07-27T11:15:40.126Z,35.97
2022-07-27T11:18:06.975Z,36.41
2022-07-27T11:20:33.750Z,37.20
2022-07-27T11:23:48.728Z,37.41
2022-07-27T11:26:02.435Z,36.30
2022-07-27T11:28:30.903Z,36.43
2022-07-27T11:30:58.942Z,36.52
2022-07-27T11:33:26.148Z,36.35
2022-07-27T11:35:53.945Z,36.62
2022-07-27T11:38:21.766Z,36.92
2022-07-27T11:40:57.111Z,37.97
2022-07-27T11:43:40.025Z,38.50
2022-07-27T11:46:29.781Z,38.32
2022-07-27T11:49:09.012Z,37.75
2022-07-27T11:51:42.777Z,37.71
2022-07-27T11:54:24.378Z,38.46
2022-07-27T11:56:55.042Z,38.85
2022-07-27T11:59:24.790Z,39.21
2022-07-27T12:02:00.180Z,39.70
2022-07-27T12:04:33.005Z,40.14
2022-07-27T12:07:02.550Z,40.80
2022-07-27T12:09:36.815Z,41.51
2022-07-27T12:12:20.479Z,42.00
2022-07-27T12:14:54.373Z,42.64
2022-07-27T12:17:37.404Z,42.52
2022-07-27T12:20:09.145Z,41.54
2022-07-27T12:22:54.967Z,41.14
2022-07-27T12:25:22.154Z,40.78
2022-07-27T12:28:06.660Z,39.64
2022-07-27T12:30:48.263Z,39.79
2022-07-27T12:33:38.106Z,39.88
2022-07-27T12:36:08.346Z,39.98
2022-07-27T12:38:39.831Z,40.33
2022-07-27T12:41:07.331Z,40.10
2022-07-27T12:43:34.094Z,40.22
2022-07-27T12:46:13.665Z,40.72
2022-07-27T12:48:42.825Z,40.84
2022-07-27T12:51:11.127Z,41.22
2022-07-27T12:53:38.319Z,41.70
2022-07-27T12:56:10.405Z,41.99
2022-07-27T12:58:37.775Z,41.77
2022-07-27T13:01:06.017Z,42.20
2022-07-27T13:03:33.770Z,42.24
2022-07-27T13:06:07.903Z,41.63
2022-07-27T13:08:39.328Z,41.69
2022-07-27T13:11:06.262Z,42.05
2022-07-27T13:13:33.121Z,42.75
2022-07-27T13:16:00.013Z,43.42
2022-07-27T13:18:27.096Z,43.60
2022-07-27T13:20:54.153Z,43.57
2022-07-27T13:23:21.315Z,42.99
2022-07-27T13:25:49.658Z,42.96
2022-07-27T13:28:16.445Z,42.36
2022-07-27T13:30:43.229Z,42.32
2022-07-27T13:33:11.550Z,42.58
2022-07-27T13:35:38.426Z,43.06
2022-07-27T13:38:05.281Z,43.08
2022-07-27T13:40:32.125Z,42.98
2022-07-27T13:42:58.861Z,42.18
2022-07-27T13:45:25.808Z,41.55
2022-07-27T13:47:53.947Z,41.70
2022-07-27T13:50:22.263Z,42.31
2022-07-27T13:52:49.678Z,42.55
2022-07-27T13:55:17.342Z,43.23
2022-07-27T13:57:45.492Z,43.46
2022-07-27T14:00:13.576Z,43.61
2022-07-27T14:02:41.882Z,44.08
2022-07-27T14:05:13.086Z,44.70
2022-07-27T14:07:41.320Z,45.34
2022-07-27T14:10:47.121Z,45.93
2022-07-27T14:13:16.279Z,45.91
2022-07-27T14:15:50.856Z,46.08
2022-07-27T14:18:21.450Z,45.38
2022-07-27T14:20:48.413Z,44.07
2022-07-27T14:23:15.230Z,43.97
2022-07-27T14:25:41.988Z,44.01
2022-07-27T14:28:08.810Z,43.64
2022-07-27T14:30:35.898Z,42.33
2022-07-27T14:33:04.070Z,41.71
2022-07-27T14:35:31.090Z,41.63
2022-07-27T14:38:00.239Z,41.86
2022-07-27T14:40:27.672Z,41.95
2022-07-27T14:42:54.544Z,41.49
2022-07-27T14:45:21.648Z,40.95
2022-07-27T14:47:48.529Z,40.22
2022-07-27T14:50:15.717Z,40.12
2022-07-27T14:52:43.467Z,39.58
2022-07-27T14:55:14.868Z,39.38
2022-07-27T14:57:43.497Z,39.09
2022-07-27T15:00:14.084Z,38.84
2022-07-27T15:02:43.101Z,38.84
2022-07-27T15:05:11.646Z,38.53
2022-07-27T15:07:39.127Z,38.67
2022-07-27T15:10:08.736Z,39.14
2022-07-27T15:12:39.095Z,38.44
2022-07-27T15:15:08.507Z,38.31
2022-07-27T15:17:37.626Z,38.21
2022-07-27T15:20:07.218Z,37.85
2022-07-27T15:22:34.083Z,37.23
2022-07-27T15:25:01.092Z,36.53
2022-07-27T15:27:27.933Z,35.85
2022-07-27T15:29:55.045Z,35.45
2022-07-27T15:32:22.157Z,35.14
2022-07-27T15:34:50.255Z,34.93
2022-07-27T15:37:19.174Z,34.84
2022-07-27T15:39:47.350Z,34.88
2022-07-27T15:42:14.290Z,34.84
2022-07-27T15:44:41.566Z,34.75
2022-07-27T15:47:08.686Z,34.57
2022-07-27T15:49:35.829Z,34.39
2022-07-27T15:52:03.056Z,34.22
2022-07-27T15:54:33.451Z,33.97
2022-07-27T15:57:01.792Z,33.64
2022-07-27T15:59:28.718Z,33.52
2022-07-27T16:01:55.801Z,33.59
2022-07-27T16:04:22.683Z,33.41
2022-07-27T16:06:49.540Z,33.08
2022-07-27T16:09:16.727Z,33.06
2022-07-27T16:11:43.999Z,33.03
2022-07-27T16:14:10.834Z,32.88
2022-07-27T16:16:37.987Z,32.76
2022-07-27T16:19:13.151Z,32.51
2022-07-27T16:21:55.133Z,32.33
2022-07-27T16:24:26.647Z,32.26
2022-07-27T16:26:53.901Z,32.23
2022-07-27T16:29:21.255Z,32.18
2022-07-27T16:31:48.257Z,32.26
2022-07-27T16:34:15.204Z,32.28
2022-07-27T16:36:42.307Z,32.38
2022-07-27T16:39:09.388Z,32.38
2022-07-27T16:41:36.559Z,32.26
2022-07-27T16:44:04.191Z,32.29
2022-07-27T16:46:31.126Z,32.22
2022-07-27T16:48:57.997Z,32.17
2022-07-27T16:51:25.005Z,32.10
2022-07-27T16:53:52.156Z,32.14
2022-07-27T16:56:18.985Z,31.94
2022-07-27T16:58:45.922Z,31.94
2022-07-27T17:01:21.732Z,31.81
2022-07-27T17:03:55.417Z,31.78
2022-07-27T17:06:22.531Z,31.66
2022-07-27T17:08:49.480Z,31.57
2022-07-27T17:11:20.839Z,31.47
2022-07-27T17:13:50.040Z,31.32
2022-07-27T17:16:17.715Z,31.27
2022-07-27T17:18:44.740Z,30.87
2022-07-27T17:21:13.157Z,30.91
2022-07-27T17:23:42.489Z,30.74
2022-07-27T17:26:12.049Z,30.47
2022-07-27T17:28:40.234Z,30.01
2022-07-27T17:31:10.075Z,29.67
2022-07-27T17:33:38.173Z,29.38
2022-07-27T17:36:07.506Z,29.11
2022-07-27T17:38:38.974Z,28.82
2022-07-27T17:41:06.057Z,28.81
2022-07-27T17:43:34.957Z,28.47
2022-07-27T17:46:01.918Z,28.35
2022-07-27T17:48:28.723Z,28.25
2022-07-27T17:50:55.630Z,28.19
2022-07-27T17:53:22.396Z,28.16
2022-07-27T17:55:49.208Z,28.17
2022-07-27T17:58:16.053Z,27.99
2022-07-27T18:00:42.894Z,27.91
2022-07-27T18:03:12.839Z,27.91
2022-07-27T18:05:40.290Z,27.89
2022-07-27T18:08:07.347Z,27.74
2022-07-27T18:10:38.428Z,27.67
2022-07-27T18:13:06.414Z,27.51
2022-07-27T18:15:54.252Z,27.58
2022-07-27T18:18:24.788Z,27.41
2022-07-27T18:20:57.851Z,27.32
2022-07-27T18:23:28.285Z,27.23
2022-07-27T18:25:55.387Z,26.80
2022-07-27T18:28:22.610Z,26.92
2022-07-27T18:30:51.107Z,26.68
2022-07-27T18:33:18.805Z,26.71
2022-07-27T18:35:46.564Z,26.68
2022-07-27T18:38:14.002Z,26.57
2022-07-27T18:40:43.000Z,26.49
2022-07-27T18:43:10.938Z,26.51
2022-07-27T18:45:38.907Z,26.41
2022-07-27T18:48:08.582Z,26.28
2022-07-27T18:50:39.167Z,26.26
2022-07-27T18:53:07.386Z,26.20
2022-07-27T18:55:34.509Z,26.10
2022-07-27T18:58:02.255Z,25.97
2022-07-27T19:00:31.866Z,25.92
2022-07-27T19:02:58.897Z,25.84
2022-07-27T19:05:32.784Z,25.73
2022-07-27T19:08:13.446Z,25.62
2022-07-27T19:10:45.003Z,25.53
2022-07-27T19:13:12.793Z,25.45
2022-07-27T19:15:40.671Z,25.41
2022-07-27T19:18:08.179Z,25.35
2022-07-27T19:20:36.703Z,25.23
2022-07-27T19:23:07.186Z,25.21
2022-07-27T19:25:34.310Z,24.97
2022-07-27T19:28:02.034Z,24.92
2022-07-27T19:30:28.869Z,24.83
2022-07-27T19:32:56.573Z,24.73
2022-07-27T19:35:23.522Z,24.59
2022-07-27T19:37:50.578Z,24.43
2022-07-27T19:40:43.514Z,24.34
2022-07-27T19:43:05.140Z,24.16
2022-07-27T19:45:32.305Z,24.17
2022-07-27T19:48:01.628Z,24.13
2022-07-27T19:50:28.550Z,24.10
2022-07-27T19:52:55.362Z,24.04
2022-07-27T19:55:22.299Z,24.02
2022-07-27T19:57:49.264Z,24.02
2022-07-27T20:00:16.480Z,24.01
2022-07-27T20:02:43.641Z,23.96
2022-07-27T20:05:10.836Z,23.79
2022-07-27T20:07:37.751Z,23.73
2022-07-27T20:10:06.788Z,23.62
2022-07-27T20:12:33.795Z,23.44
2022-07-27T20:15:00.912Z,23.33
2022-07-27T20:17:28.386Z,23.33
2022-07-27T20:19:55.315Z,23.30
2022-07-27T20:22:22.495Z,23.20
2022-07-27T20:24:49.365Z,23.26
2022-07-27T20:27:16.156Z,23.32
2022-07-27T20:29:46.168Z,23.30
2022-07-27T20:32:13.125Z,23.17
2022-07-27T20:34:40.198Z,23.21
2022-07-27T20:37:07.123Z,23.29
2022-07-27T20:39:34.083Z,23.30
2022-07-27T20:42:00.964Z,23.34
2022-07-27T20:44:27.866Z,23.18
2022-07-27T20:46:54.748Z,23.33
2022-07-27T20:49:22.060Z,23.39
2022-07-27T20:51:48.981Z,23.38
2022-07-27T20:54:15.786Z,23.45
2022-07-27T20:56:42.577Z,23.45
2022-07-27T20:59:17.125Z,23.48
2022-07-27T21:01:44.797Z,23.53
2022-07-27T21:04:11.784Z,23.52
2022-07-27T21:06:40.563Z,23.55
2022-07-27T21:09:08.866Z,23.56
2022-07-27T21:11:35.658Z,23.50
2022-07-27T21:14:02.727Z,23.61
2022-07-27T21:16:29.879Z,23.61
2022-07-27T21:18:56.778Z,23.46
2022-07-27T21:21:27.438Z,23.52
2022-07-27T21:24:13.404Z,23.56
2022-07-27T21:26:40.468Z,23.56
2022-07-27T21:29:09.498Z,23.44
2022-07-27T21:31:36.655Z,23.26
2022-07-27T21:34:08.308Z,23.35
2022-07-27T21:36:35.364Z,23.30
2022-07-27T21:39:02.286Z,23.26
2022-07-27T21:41:29.118Z,23.23
2022-07-27T21:43:55.925Z,23.13
2022-07-27T21:46:23.215Z,23.03
2022-07-27T21:48:50.100Z,22.86
2022-07-27T21:51:18.433Z,22.70
2022-07-27T21:53:49.987Z,22.55
2022-07-27T21:56:17.601Z,22.45
2022-07-27T21:58:48.835Z,22.32
2022-07-27T22:01:16.603Z,22.20
2022-07-27T22:03:44.251Z,22.10
2022-07-27T22:06:11.357Z,22.09
2022-07-27T22:08:38.503Z,22.08
2022-07-27T22:11:05.968Z,22.11
2022-07-27T22:13:33.562Z,22.05
2022-07-27T22:16:00.934Z,21.97
2022-07-27T22:18:28.834Z,21.96
2022-07-27T22:20:56.269Z,21.89
2022-07-27T22:23:23.507Z,21.68
2022-07-27T22:25:50.694Z,21.54
2022-07-27T22:28:17.536Z,21.50
2022-07-27T22:30:44.435Z,21.39
2022-07-27T22:33:31.379Z,21.19
2022-07-27T22:35:58.162Z,21.12
2022-07-27T22:38:25.009Z,21.08
2022-07-27T22:40:56.199Z,20.99
2022-07-27T22:43:23.249Z,20.99
2022-07-27T22:45:51.921Z,20.81
2022-07-27T22:48:18.784Z,20.74
2022-07-27T22:50:45.622Z,20.75
2022-07-27T22:53:14.347Z,20.75
2022-07-27T22:55:41.299Z,20.83
2022-07-27T22:58:08.119Z,20.81
2022-07-27T23:00:35.185Z,20.93
2022-07-27T23:03:02.043Z,20.94
2022-07-27T23:05:29.088Z,20.92
2022-07-27T23:07:55.893Z,20.88
2022-07-27T23:10:41.333Z,20.92
2022-07-27T23:13:08.610Z,21.02
2022-07-27T23:15:37.367Z,21.02
2022-07-27T23:18:04.844Z,21.04
2022-07-27T23:20:31.949Z,20.97
2022-07-27T23:22:58.887Z,20.84
2022-07-27T23:25:35.197Z,20.75
2022-07-27T23:28:04.336Z,20.72
2022-07-27T23:30:31.341Z,20.81
2022-07-27T23:32:58.189Z,20.85
2022-07-27T23:35:25.201Z,20.89
2022-07-27T23:37:52.014Z,20.95
2022-07-27T23:40:19.039Z,21.05
2022-07-27T23:42:45.949Z,21.11
2022-07-27T23:45:13.020Z,21.16
2022-07-27T23:47:40.446Z,21.19
2022-07-27T23:50:09.162Z,21.23
2022-07-27T23:52:37.883Z,21.26
2022-07-27T23:55:05.914Z,21.19
2022-07-27T23:57:33.107Z,21.20
2022-07-27T23:59:59.918Z,21.14
